Time;durP1;ratioP1;P1;durP2;ratioP2;P2;SDS_P1;SDS_P2;PMS_P1;PMS_P2;Temp;Humidity;BMP_temperature;BMP_pressure;BME280_temperature;BME280_humidity;BME280_pressure;Samples;Min_cycle;Max_cycle;Signal;HPM_P1;HPM_P2
2024/03/08 00:00:32;;;;;;;;;;;20.10;55.10;;;;;;1542800;75;791;-76
2024/03/08 00:02:33;;;;;;;;;;;20.10;55.20;;;;;;1545033;75;1932;-74
2024/03/08 00:04:35;;;;;;;;;;;20.00;55.00;;;;;;1500559;78;685;-75
2024/03/08 00:06:37;;;;;;;;;;;20.00;55.00;;;;;;1498503;78;693;-74
2024/03/08 00:08:39;;;;;;;;;;;20.00;55.10;;;;;;1506884;79;737;-74
2024/03/08 00:10:41;;;;;;;;;;;20.00;55.10;;;;;;1495870;79;953;-74
2024/03/08 00:12:44;;;;;;;;;;;20.00;55.10;;;;;;1497399;79;1156;-75
2024/03/08 00:14:46;;;;;;;;;;;20.00;55.10;;;;;;1554636;75;1530;-74
2024/03/08 00:16:48;;;;;;;;;;;20.00;55.20;;;;;;1563747;75;1587;-75
2024/03/08 00:18:50;;;;;;;;;;;20.00;55.20;;;;;;1554485;75;549;-76
2024/03/08 00:20:52;;;;;;;;;;;20.00;55.20;;;;;;1560800;75;748;-74
2024/03/08 00:22:56;;;;;;;;;;;20.10;55.50;;;;;;1557931;75;1962;-74
2024/03/08 00:24:57;;;;;;;;;;;20.00;55.30;;;;;;1542577;75;1663;-73
2024/03/08 00:26:59;;;;;;;;;;;20.10;55.50;;;;;;1545511;75;696;-75
2024/03/08 00:29:01;;;;;;;;;;;20.00;55.40;;;;;;1555442;75;773;-74
2024/03/08 00:31:03;;;;;;;;;;;20.10;55.60;;;;;;1558376;74;1522;-74
2024/03/08 00:33:05;;;;;;;;;;;20.00;55.50;;;;;;1545839;74;1096;-74
2024/03/08 00:35:07;;;;;;;;;;;20.00;55.50;;;;;;1549348;75;741;-75
2024/03/08 00:37:10;;;;;;;;;;;20.00;55.50;;;;;;1539719;75;721;-74
2024/03/08 00:39:12;;;;;;;;;;;20.10;55.60;;;;;;1562687;75;780;-73
2024/03/08 00:41:13;;;;;;;;;;;20.00;55.60;;;;;;1552195;75;1225;-75
2024/03/08 00:43:15;;;;;;;;;;;20.10;55.70;;;;;;1555914;75;1935;-73
2024/03/08 00:45:17;;;;;;;;;;;20.00;55.60;;;;;;1548893;75;1568;-74
2024/03/08 00:47:19;;;;;;;;;;;20.00;55.70;;;;;;1544758;75;674;-73
2024/03/08 00:49:22;;;;;;;;;;;20.00;55.70;;;;;;1542850;75;730;-74
2024/03/08 00:51:24;;;;;;;;;;;20.00;55.80;;;;;;1547451;75;1119;-74
2024/03/08 00:53:26;;;;;;;;;;;20.00;55.90;;;;;;1547954;75;772;-75
2024/03/08 00:55:29;;;;;;;;;;;20.10;56.00;;;;;;1555662;75;655;-75
2024/03/08 00:57:31;;;;;;;;;;;20.10;56.00;;;;;;1552442;75;728;-74
2024/03/08 00:59:33;;;;;;;;;;;20.10;56.10;;;;;;1557283;75;1547;-73
2024/03/08 01:01:35;;;;;;;;;;;20.00;56.00;;;;;;1550704;75;1146;-74
2024/03/08 01:03:37;;;;;;;;;;;20.00;56.00;;;;;;1551499;76;1940;-75
2024/03/08 01:05:39;;;;;;;;;;;20.10;56.20;;;;;;1552137;75;693;-74
2024/03/08 01:07:40;;;;;;;;;;;20.10;56.40;;;;;;1550934;75;840;-72
2024/03/08 01:09:42;;;;;;;;;;;20.00;56.00;;;;;;1544168;75;638;-72
2024/03/08 01:11:44;;;;;;;;;;;20.00;56.00;;;;;;1548187;75;1163;-70
2024/03/08 01:13:47;;;;;;;;;;;20.10;56.10;;;;;;1547613;75;680;-71
2024/03/08 01:15:49;;;;;;;;;;;20.00;56.00;;;;;;1554790;75;737;-70
2024/03/08 01:17:50;;;;;;;;;;;20.00;55.90;;;;;;1551691;75;745;-73
2024/03/08 01:19:53;;;;;;;;;;;20.10;56.00;;;;;;1545352;75;631;-69
2024/03/08 01:21:57;;;;;;;;;;;20.10;56.10;;;;;;1561342;74;1118;-73
2024/03/08 01:23:59;;;;;;;;;;;20.10;56.00;;;;;;1558774;74;1926;-72
2024/03/08 01:26:02;;;;;;;;;;;20.10;56.00;;;;;;1547124;76;816;-72
2024/03/08 01:28:04;;;;;;;;;;;20.10;56.00;;;;;;1556061;75;924;-69
2024/03/08 01:30:06;;;;;;;;;;;20.10;56.10;;;;;;1552945;75;764;-71
2024/03/08 01:32:08;;;;;;;;;;;20.10;56.00;;;;;;1541291;75;1146;-72
2024/03/08 01:34:10;;;;;;;;;;;20.10;56.00;;;;;;1556896;75;778;-71
2024/03/08 01:36:15;;;;;;;;;;;20.00;55.90;;;;;;1550186;75;798;-71
2024/03/08 01:38:15;;;;;;;;;;;20.10;56.00;;;;;;1553039;75;1131;-71
2024/03/08 01:40:17;;;;;;;;;;;20.10;56.00;;;;;;1545411;75;683;-71
2024/03/08 01:42:19;;;;;;;;;;;20.10;56.00;;;;;;1547878;76;1177;-71
2024/03/08 01:44:21;;;;;;;;;;;20.10;56.00;;;;;;1548511;75;1931;-72
2024/03/08 01:46:23;;;;;;;;;;;20.00;55.90;;;;;;1553641;75;706;-72
2024/03/08 01:48:25;;;;;;;;;;;20.10;56.00;;;;;;1547067;75;723;-72
2024/03/08 01:50:27;;;;;;;;;;;20.00;55.80;;;;;;1562778;74;810;-72
2024/03/08 01:52:31;;;;;;;;;;;20.10;55.90;;;;;;1558913;75;1147;-72
2024/03/08 01:54:33;;;;;;;;;;;20.00;55.80;;;;;;1554191;75;684;-71
2024/03/08 01:56:34;;;;;;;;;;;20.10;55.90;;;;;;1559386;75;665;-71
2024/03/08 01:58:37;;;;;;;;;;;20.10;55.90;;;;;;1548206;75;861;-72
2024/03/08 02:00:40;;;;;;;;;;;20.10;55.90;;;;;;1557628;75;805;-72
2024/03/08 02:02:44;;;;;;;;;;;20.00;55.70;;;;;;1544557;74;1935;-72
2024/03/08 02:04:46;;;;;;;;;;;20.10;55.90;;;;;;1555603;74;686;-71
2024/03/08 02:06:48;;;;;;;;;;;20.10;55.90;;;;;;1545161;76;713;-70
2024/03/08 02:08:50;;;;;;;;;;;20.00;55.80;;;;;;1547661;75;1523;-72
2024/03/08 02:10:52;;;;;;;;;;;20.10;55.90;;;;;;1555887;75;681;-71
2024/03/08 02:12:53;;;;;;;;;;;20.10;56.00;;;;;;1551808;75;1146;-72
2024/03/08 02:14:56;;;;;;;;;;;20.10;55.90;;;;;;1556001;75;722;-73
2024/03/08 02:16:59;;;;;;;;;;;20.10;55.90;;;;;;1549060;74;633;-71
2024/03/08 02:19:01;;;;;;;;;;;20.20;55.90;;;;;;1552412;75;1159;-71
2024/03/08 02:21:03;;;;;;;;;;;20.10;56.00;;;;;;1552661;75;727;-71
2024/03/08 02:23:05;;;;;;;;;;;20.10;56.00;;;;;;1550692;74;1957;-72
2024/03/08 02:25:07;;;;;;;;;;;20.00;55.90;;;;;;1552562;75;752;-71
2024/03/08 02:27:11;;;;;;;;;;;20.10;56.00;;;;;;1548414;75;762;-70
2024/03/08 02:29:14;;;;;;;;;;;20.10;55.90;;;;;;1547111;75;1666;-72
2024/03/08 02:31:16;;;;;;;;;;;20.00;55.80;;;;;;1547339;74;1158;-73
2024/03/08 02:33:19;;;;;;;;;;;20.10;55.90;;;;;;1567062;75;827;-70
2024/03/08 02:35:21;;;;;;;;;;;20.10;56.00;;;;;;1559000;75;658;-72
2024/03/08 02:37:23;;;;;;;;;;;20.10;55.90;;;;;;1560506;75;710;-71
2024/03/08 02:39:25;;;;;;;;;;;20.10;56.00;;;;;;1552787;75;682;-72
2024/03/08 02:41:27;;;;;;;;;;;20.10;56.00;;;;;;1554553;75;1234;-70
2024/03/08 02:43:29;;;;;;;;;;;20.10;55.90;;;;;;1552465;75;1952;-71
2024/03/08 02:45:31;;;;;;;;;;;20.10;55.90;;;;;;1559677;75;762;-71
2024/03/08 02:47:33;;;;;;;;;;;20.00;55.80;;;;;;1545359;75;617;-72
2024/03/08 02:49:37;;;;;;;;;;;20.10;55.90;;;;;;1551447;75;754;-70
2024/03/08 02:51:38;;;;;;;;;;;20.00;55.70;;;;;;1557707;75;1948;-72
2024/03/08 02:53:40;;;;;;;;;;;20.00;55.80;;;;;;1557201;75;734;-72
2024/03/08 02:55:42;;;;;;;;;;;20.10;55.80;;;;;;1548397;75;719;-72
2024/03/08 02:57:45;;;;;;;;;;;20.10;55.90;;;;;;1545246;74;697;-71
2024/03/08 02:59:47;;;;;;;;;;;20.10;55.80;;;;;;1565629;75;895;-71
2024/03/08 03:01:49;;;;;;;;;;;20.10;55.90;;;;;;1537693;75;1154;-70
2024/03/08 03:03:51;;;;;;;;;;;20.00;55.70;;;;;;1554350;75;1926;-74
2024/03/08 03:05:55;;;;;;;;;;;20.10;55.80;;;;;;1552489;75;1546;-71
2024/03/08 03:07:58;;;;;;;;;;;20.10;55.80;;;;;;1559732;75;1998;-72
2024/03/08 03:10:03;;;;;;;;;;;20.00;55.70;;;;;;1553450;75;637;-72
2024/03/08 03:12:08;;;;;;;;;;;20.00;55.70;;;;;;1557539;75;1153;-69
2024/03/08 03:14:09;;;;;;;;;;;20.10;55.80;;;;;;1552697;75;1129;-71
2024/03/08 03:16:10;;;;;;;;;;;20.10;55.80;;;;;;1543466;75;687;-73
2024/03/08 03:18:12;;;;;;;;;;;20.10;55.80;;;;;;1547857;75;622;-70
2024/03/08 03:20:14;;;;;;;;;;;20.10;55.80;;;;;;1552896;75;803;-72
2024/03/08 03:22:16;;;;;;;;;;;20.00;55.70;;;;;;1550388;75;1158;-72
2024/03/08 03:24:18;;;;;;;;;;;20.10;55.80;;;;;;1555618;75;1956;-71
2024/03/08 03:26:21;;;;;;;;;;;20.00;55.70;;;;;;1548616;75;660;-71
2024/03/08 03:28:23;;;;;;;;;;;20.10;55.80;;;;;;1555720;75;788;-69
2024/03/08 03:30:26;;;;;;;;;;;20.10;55.80;;;;;;1555833;75;650;-68
2024/03/08 03:32:28;;;;;;;;;;;20.00;55.70;;;;;;1554470;75;1178;-71
2024/03/08 03:34:30;;;;;;;;;;;20.10;55.90;;;;;;1550391;75;800;-71
2024/03/08 03:36:33;;;;;;;;;;;20.10;55.90;;;;;;1556953;75;755;-71
2024/03/08 03:38:35;;;;;;;;;;;20.10;55.90;;;;;;1560664;75;662;-70
2024/03/08 03:40:37;;;;;;;;;;;20.10;55.80;;;;;;1556181;75;735;-71
2024/03/08 03:42:39;;;;;;;;;;;20.10;55.90;;;;;;1559669;75;1197;-72
2024/03/08 03:44:43;;;;;;;;;;;20.00;55.70;;;;;;1548699;75;1915;-68
2024/03/08 03:46:45;;;;;;;;;;;20.10;55.90;;;;;;1543364;75;756;-71
2024/03/08 03:48:47;;;;;;;;;;;20.00;55.80;;;;;;1549512;75;721;-70
2024/03/08 03:50:50;;;;;;;;;;;20.10;55.90;;;;;;1555569;75;785;-71
2024/03/08 03:52:52;;;;;;;;;;;20.00;55.80;;;;;;1554172;75;1180;-72
2024/03/08 03:54:53;;;;;;;;;;;20.10;55.90;;;;;;1546109;75;745;-70
2024/03/08 03:56:55;;;;;;;;;;;20.00;55.70;;;;;;1494203;78;804;-72
2024/03/08 03:58:57;;;;;;;;;;;20.10;55.80;;;;;;1492325;79;701;-72
2024/03/08 04:00:59;;;;;;;;;;;20.10;55.90;;;;;;1499777;79;862;-72
2024/03/08 04:03:01;;;;;;;;;;;20.00;55.70;;;;;;1496571;79;1669;-72
2024/03/08 04:05:03;;;;;;;;;;;20.00;55.70;;;;;;1498287;79;1942;-70
2024/03/08 04:07:05;;;;;;;;;;;20.10;55.90;;;;;;1491058;79;683;-74
2024/03/08 04:09:07;;;;;;;;;;;20.10;55.90;;;;;;1487717;79;696;-71
2024/03/08 04:11:09;;;;;;;;;;;20.10;55.90;;;;;;1545308;76;780;-73
2024/03/08 04:13:11;;;;;;;;;;;20.10;55.90;;;;;;1552769;75;1130;-73
2024/03/08 04:15:13;;;;;;;;;;;20.10;55.90;;;;;;1550326;74;735;-71
2024/03/08 04:17:15;;;;;;;;;;;20.00;55.70;;;;;;1556021;75;717;-73
2024/03/08 04:19:17;;;;;;;;;;;20.00;55.70;;;;;;1546859;75;681;-71
2024/03/08 04:21:21;;;;;;;;;;;20.00;55.70;;;;;;1554211;75;1158;-71
2024/03/08 04:23:23;;;;;;;;;;;20.00;55.70;;;;;;1542046;75;686;-70
2024/03/08 04:25:25;;;;;;;;;;;20.10;55.90;;;;;;1559031;74;1948;-71
2024/03/08 04:27:27;;;;;;;;;;;20.00;55.70;;;;;;1553052;75;831;-72
2024/03/08 04:29:29;;;;;;;;;;;20.00;55.70;;;;;;1541016;75;687;-71
2024/03/08 04:31:31;;;;;;;;;;;20.00;55.70;;;;;;1540200;75;1147;-72
2024/03/08 04:33:35;;;;;;;;;;;20.00;55.70;;;;;;1552431;75;747;-70
2024/03/08 04:35:36;;;;;;;;;;;20.00;55.70;;;;;;1549991;75;1554;-71
2024/03/08 04:37:38;;;;;;;;;;;20.00;55.70;;;;;;1553536;75;688;-72
2024/03/08 04:39:40;;;;;;;;;;;20.10;55.90;;;;;;1554377;75;737;-72
2024/03/08 04:41:46;;;;;;;;;;;20.10;55.90;;;;;;1497696;78;1208;-70
2024/03/08 04:43:48;;;;;;;;;;;20.00;55.70;;;;;;1491574;78;1933;-70
2024/03/08 04:45:49;;;;;;;;;;;20.00;55.70;;;;;;1488902;78;732;-70
2024/03/08 04:47:52;;;;;;;;;;;20.00;55.70;;;;;;1490703;78;701;-71
2024/03/08 04:49:56;;;;;;;;;;;20.00;55.70;;;;;;1478369;78;755;-71
2024/03/08 04:51:58;;;;;;;;;;;20.00;55.70;;;;;;1528281;76;1157;-71
2024/03/08 04:53:59;;;;;;;;;;;20.10;55.80;;;;;;1531645;76;831;-70
2024/03/08 04:56:05;;;;;;;;;;;20.00;55.70;;;;;;1520814;76;806;-70
2024/03/08 04:58:09;;;;;;;;;;;20.00;55.70;;;;;;1522696;76;1654;-70
2024/03/08 05:00:11;;;;;;;;;;;20.00;55.70;;;;;;1530006;76;1162;-72
2024/03/08 05:02:12;;;;;;;;;;;20.00;55.70;;;;;;1518877;76;1113;-71
2024/03/08 05:04:15;;;;;;;;;;;20.00;55.70;;;;;;1531047;76;1927;-77
2024/03/08 05:06:17;;;;;;;;;;;20.00;55.70;;;;;;1526890;76;720;-71
2024/03/08 05:08:19;;;;;;;;;;;20.10;55.80;;;;;;1527770;76;784;-74
2024/03/08 05:10:21;;;;;;;;;;;20.00;55.60;;;;;;1521111;76;857;-74
2024/03/08 05:12:23;;;;;;;;;;;20.10;55.70;;;;;;1506957;78;1146;-75
2024/03/08 05:14:25;;;;;;;;;;;20.00;55.60;;;;;;1510711;78;739;-73
2024/03/08 05:16:27;;;;;;;;;;;20.00;55.60;;;;;;1508018;78;742;-75
2024/03/08 05:18:29;;;;;;;;;;;20.10;55.70;;;;;;1510417;78;721;-76
2024/03/08 05:20:32;;;;;;;;;;;20.00;55.50;;;;;;1504231;78;730;-75
2024/03/08 05:22:35;;;;;;;;;;;20.10;55.60;;;;;;1501162;77;1277;-73
2024/03/08 05:24:37;;;;;;;;;;;20.00;55.60;;;;;;1505041;78;1921;-71
2024/03/08 05:26:39;;;;;;;;;;;20.10;55.70;;;;;;1497534;78;758;-71
2024/03/08 05:28:41;;;;;;;;;;;20.00;55.70;;;;;;1501331;77;722;-74
2024/03/08 05:30:43;;;;;;;;;;;20.10;56.00;;;;;;1502880;77;810;-75
2024/03/08 05:32:45;;;;;;;;;;;20.10;55.90;;;;;;1504435;77;1134;-74
2024/03/08 05:34:46;;;;;;;;;;;20.00;55.90;;;;;;1500332;77;811;-73
2024/03/08 05:36:54;;;;;;;;;;;20.10;55.90;;;;;;1503979;77;674;-75
2024/03/08 05:38:52;;;;;;;;;;;20.10;55.90;;;;;;1499464;77;1074;-74
2024/03/08 05:40:54;;;;;;;;;;;20.10;55.90;;;;;;1502977;77;961;-74
2024/03/08 05:42:56;;;;;;;;;;;20.10;55.90;;;;;;1500607;77;1185;-75
2024/03/08 05:44:58;;;;;;;;;;;20.10;56.00;;;;;;1500124;77;1926;-74
2024/03/08 05:47:00;;;;;;;;;;;20.10;56.00;;;;;;1505607;77;841;-75
2024/03/08 05:49:06;;;;;;;;;;;20.00;55.90;;;;;;1506607;78;793;-77
2024/03/08 05:51:07;;;;;;;;;;;20.10;56.00;;;;;;1495359;78;705;-76
2024/03/08 05:53:09;;;;;;;;;;;20.10;56.00;;;;;;1504011;78;1112;-73
2024/03/08 05:55:14;;;;;;;;;;;20.10;56.10;;;;;;1505014;78;1553;-73
2024/03/08 05:57:15;;;;;;;;;;;20.10;56.20;;;;;;1507892;78;1648;-74
2024/03/08 05:59:18;;;;;;;;;;;20.10;56.30;;;;;;1502387;78;739;-73
2024/03/08 06:01:20;;;;;;;;;;;20.10;55.70;;;;;;1505131;78;1176;-70
2024/03/08 06:03:22;;;;;;;;;;;20.10;54.30;;;;;;1509200;78;734;-69
2024/03/08 06:05:24;;;;;;;;;;;20.00;53.10;;;;;;1516366;78;1944;-69
2024/03/08 06:07:26;;;;;;;;;;;20.00;52.30;;;;;;1511243;78;618;-69
2024/03/08 06:09:28;;;;;;;;;;;19.90;51.70;;;;;;1509138;78;733;-69
2024/03/08 06:11:31;;;;;;;;;;;19.90;51.50;;;;;;1520081;78;1121;-69
2024/03/08 06:13:33;;;;;;;;;;;19.80;50.40;;;;;;1513730;77;667;-69
2024/03/08 06:15:36;;;;;;;;;;;19.80;49.70;;;;;;1514234;77;860;-71
2024/03/08 06:17:37;;;;;;;;;;;19.70;50.00;;;;;;1515372;77;848;-70
2024/03/08 06:19:39;;;;;;;;;;;19.60;49.30;;;;;;1513173;78;764;-68
2024/03/08 06:21:41;;;;;;;;;;;19.60;49.00;;;;;;1511167;77;1154;-72
2024/03/08 06:23:43;;;;;;;;;;;19.50;48.60;;;;;;1512313;78;619;-69
2024/03/08 06:25:45;;;;;;;;;;;19.50;48.60;;;;;;1505637;78;1953;-69
2024/03/08 06:27:47;;;;;;;;;;;19.50;48.20;;;;;;1518503;78;732;-70
2024/03/08 06:29:49;;;;;;;;;;;19.40;48.50;;;;;;1507061;78;706;-69
2024/03/08 06:31:51;;;;;;;;;;;19.40;48.20;;;;;;1519283;77;1160;-72
2024/03/08 06:33:54;;;;;;;;;;;19.30;47.90;;;;;;1515447;78;743;-71
2024/03/08 06:35:59;;;;;;;;;;;19.30;47.60;;;;;;1512980;78;796;-68
2024/03/08 06:38:00;;;;;;;;;;;19.30;47.60;;;;;;1508017;78;908;-69
2024/03/08 06:40:08;;;;;;;;;;;19.30;47.50;;;;;;1507572;78;806;-75
2024/03/08 06:42:07;;;;;;;;;;;19.20;46.80;;;;;;1517712;78;1611;-69
2024/03/08 06:44:09;;;;;;;;;;;19.20;46.70;;;;;;1510614;78;780;-69
2024/03/08 06:46:12;;;;;;;;;;;19.20;46.60;;;;;;1504025;78;1939;-71
2024/03/08 06:48:15;;;;;;;;;;;19.20;46.50;;;;;;1501250;78;616;-70
2024/03/08 06:50:17;;;;;;;;;;;19.10;46.00;;;;;;1502165;78;1549;-69
2024/03/08 06:52:19;;;;;;;;;;;19.20;46.00;;;;;;1503999;78;1175;-72
2024/03/08 06:54:20;;;;;;;;;;;19.10;46.10;;;;;;1516470;78;809;-69
2024/03/08 06:56:22;;;;;;;;;;;19.10;46.00;;;;;;1504295;78;726;-69
2024/03/08 06:58:24;;;;;;;;;;;19.10;45.90;;;;;;1513766;78;887;-72
2024/03/08 07:00:28;;;;;;;;;;;19.10;46.10;;;;;;1508318;78;708;-70
2024/03/08 07:02:32;;;;;;;;;;;19.10;45.70;;;;;;1512632;78;1166;-71
2024/03/08 07:04:33;;;;;;;;;;;19.10;45.40;;;;;;1509900;78;1929;-74
2024/03/08 07:06:37;;;;;;;;;;;19.10;45.00;;;;;;1514739;78;1504;-75
2024/03/08 07:08:39;;;;;;;;;;;19.10;45.30;;;;;;1524745;77;810;-71
2024/03/08 07:10:45;;;;;;;;;;;19.10;45.30;;;;;;1515387;77;895;-69
2024/03/08 07:12:46;;;;;;;;;;;19.00;45.00;;;;;;1513862;77;1172;-69
2024/03/08 07:14:48;;;;;;;;;;;19.00;45.20;;;;;;1514260;78;810;-68
2024/03/08 07:16:51;;;;;;;;;;;19.00;44.70;;;;;;1507283;78;698;-74
2024/03/08 07:18:53;;;;;;;;;;;19.10;44.40;;;;;;1502149;78;776;-73
2024/03/08 07:20:54;;;;;;;;;;;19.10;44.80;;;;;;1507748;78;682;-70
2024/03/08 07:22:56;;;;;;;;;;;19.10;44.90;;;;;;1510901;78;1140;-71
2024/03/08 07:25:20;;;;;;;;;;;19.00;44.70;;;;;;1507263;78;1949;-70
2024/03/08 07:27:02;;;;;;;;;;;19.10;44.50;;;;;;1498854;78;1393;-69
2024/03/08 07:29:04;;;;;;;;;;;19.00;44.40;;;;;;1507109;77;750;-74
2024/03/08 07:31:17;;;;;;;;;;;19.00;44.50;;;;;;1514045;78;683;-71
2024/03/08 07:33:12;;;;;;;;;;;19.00;44.20;;;;;;1504279;78;1742;-71
2024/03/08 07:35:14;;;;;;;;;;;19.00;44.00;;;;;;1514042;78;596;-73
2024/03/08 07:37:15;;;;;;;;;;;19.00;43.30;;;;;;1515773;77;805;-72
2024/03/08 07:39:18;;;;;;;;;;;19.00;43.90;;;;;;1514827;78;750;-68
2024/03/08 07:41:20;;;;;;;;;;;19.00;43.50;;;;;;1510495;78;1184;-73
2024/03/08 07:43:22;;;;;;;;;;;19.00;43.80;;;;;;1512259;78;784;-73
2024/03/08 07:45:25;;;;;;;;;;;19.00;43.20;;;;;;1505641;78;1908;-72
2024/03/08 07:47:27;;;;;;;;;;;19.00;43.50;;;;;;1512789;77;692;-73
2024/03/08 07:49:29;;;;;;;;;;;18.90;43.40;;;;;;1507766;77;730;-74
2024/03/08 07:51:30;;;;;;;;;;;19.00;43.00;;;;;;1513565;78;1561;-70
2024/03/08 07:53:32;;;;;;;;;;;19.00;43.30;;;;;;1513364;78;720;-69
2024/03/08 07:55:35;;;;;;;;;;;19.00;43.10;;;;;;1521138;78;698;-70
2024/03/08 07:57:42;;;;;;;;;;;19.00;43.00;;;;;;1517066;78;695;-69
2024/03/08 07:59:40;;;;;;;;;;;19.00;43.10;;;;;;1506418;78;1651;-70
2024/03/08 08:01:43;;;;;;;;;;;18.90;42.90;;;;;;1511956;78;1148;-69
2024/03/08 08:03:46;;;;;;;;;;;18.90;43.10;;;;;;1516294;77;655;-71
2024/03/08 08:05:48;;;;;;;;;;;18.90;42.90;;;;;;1506805;78;1930;-69
2024/03/08 08:07:52;;;;;;;;;;;18.90;42.90;;;;;;1517054;77;625;-70
2024/03/08 08:09:54;;;;;;;;;;;18.90;42.60;;;;;;1522122;77;1998;-72
2024/03/08 08:11:56;;;;;;;;;;;19.00;42.60;;;;;;1510806;78;1161;-70
2024/03/08 08:13:59;;;;;;;;;;;18.80;42.80;;;;;;1514945;78;765;-69
2024/03/08 08:16:01;;;;;;;;;;;18.80;42.70;;;;;;1513787;78;711;-69
2024/03/08 08:18:05;;;;;;;;;;;18.90;42.60;;;;;;1513613;78;703;-72
2024/03/08 08:20:07;;;;;;;;;;;18.90;42.70;;;;;;1511836;78;1510;-72
2024/03/08 08:22:09;;;;;;;;;;;18.90;42.60;;;;;;1508880;78;1158;-70
2024/03/08 08:24:11;;;;;;;;;;;18.80;42.70;;;;;;1509816;78;608;-72
2024/03/08 08:26:13;;;;;;;;;;;18.80;42.00;;;;;;1515381;78;1952;-70
2024/03/08 08:28:17;;;;;;;;;;;18.80;42.50;;;;;;1512115;78;675;-70
2024/03/08 08:30:18;;;;;;;;;;;18.80;42.20;;;;;;1515186;78;1975;-69
2024/03/08 08:32:20;;;;;;;;;;;18.80;42.60;;;;;;1512687;78;1138;-68
2024/03/08 08:34:23;;;;;;;;;;;18.80;42.60;;;;;;1506698;78;737;-76
2024/03/08 08:36:25;;;;;;;;;;;18.80;42.60;;;;;;1510715;78;802;-73
2024/03/08 08:38:27;;;;;;;;;;;18.80;42.70;;;;;;1517669;77;660;-73
2024/03/08 08:40:31;;;;;;;;;;;18.80;42.90;;;;;;1508775;78;708;-76
2024/03/08 08:42:33;;;;;;;;;;;18.80;43.10;;;;;;1506153;78;1630;-73
2024/03/08 08:44:35;;;;;;;;;;;18.90;43.50;;;;;;1512644;78;726;-78
2024/03/08 08:46:37;;;;;;;;;;;18.90;43.70;;;;;;1519543;78;1938;-79
2024/03/08 08:48:42;;;;;;;;;;;18.90;43.90;;;;;;1521452;78;726;-74
2024/03/08 08:50:44;;;;;;;;;;;18.90;44.10;;;;;;1511728;77;1425;-75
2024/03/08 08:52:46;;;;;;;;;;;19.00;44.20;;;;;;1508012;78;1168;-75
2024/03/08 08:54:49;;;;;;;;;;;19.00;44.40;;;;;;1505459;78;688;-75
2024/03/08 08:56:51;;;;;;;;;;;19.00;44.40;;;;;;1504712;78;736;-75
2024/03/08 08:58:57;;;;;;;;;;;19.00;44.60;;;;;;1506492;78;722;-75
2024/03/08 09:00:59;;;;;;;;;;;19.10;44.90;;;;;;1516010;78;739;-77
2024/03/08 09:03:02;;;;;;;;;;;19.10;45.00;;;;;;1512140;77;1104;-72
2024/03/08 09:05:04;;;;;;;;;;;19.10;45.10;;;;;;1509503;77;761;-77
2024/03/08 09:07:09;;;;;;;;;;;19.10;45.20;;;;;;1519079;78;1942;-75
2024/03/08 09:09:13;;;;;;;;;;;19.20;45.30;;;;;;1517169;78;691;-76
2024/03/08 09:11:15;;;;;;;;;;;19.20;45.40;;;;;;1510403;78;970;-74
2024/03/08 09:13:17;;;;;;;;;;;19.20;45.50;;;;;;1501586;78;834;-77
2024/03/08 09:15:20;;;;;;;;;;;19.20;45.60;;;;;;1515660;78;765;-74
2024/03/08 09:17:22;;;;;;;;;;;19.20;45.70;;;;;;1521581;78;667;-75
2024/03/08 09:19:25;;;;;;;;;;;19.30;45.90;;;;;;1516010;77;720;-76
2024/03/08 09:21:27;;;;;;;;;;;19.30;46.00;;;;;;1514026;78;1170;-79
2024/03/08 09:23:30;;;;;;;;;;;19.20;46.00;;;;;;1515344;78;722;-74
2024/03/08 09:25:32;;;;;;;;;;;19.30;46.30;;;;;;1519600;77;1914;-76
2024/03/08 09:27:34;;;;;;;;;;;19.30;46.30;;;;;;1507292;77;717;-73
2024/03/08 09:29:36;;;;;;;;;;;19.30;46.40;;;;;;1509432;78;738;-77
2024/03/08 09:31:41;;;;;;;;;;;19.40;46.50;;;;;;1513732;78;1145;-78
2024/03/08 09:33:43;;;;;;;;;;;19.40;46.50;;;;;;1505834;77;621;-75
2024/03/08 09:35:46;;;;;;;;;;;19.40;46.60;;;;;;1504261;78;704;-75
2024/03/08 09:37:51;;;;;;;;;;;19.40;46.70;;;;;;1507498;78;796;-74
2024/03/08 09:39:52;;;;;;;;;;;19.40;46.80;;;;;;1509546;78;1012;-73
2024/03/08 09:41:55;;;;;;;;;;;19.50;47.00;;;;;;1510958;78;1252;-73
2024/03/08 09:43:59;;;;;;;;;;;19.40;46.90;;;;;;1516247;78;780;-74
2024/03/08 09:46:01;;;;;;;;;;;19.50;47.20;;;;;;1513100;77;1942;-74
2024/03/08 09:48:03;;;;;;;;;;;19.50;47.30;;;;;;1520572;77;1668;-75
2024/03/08 09:50:09;;;;;;;;;;;19.50;47.30;;;;;;1520903;77;747;-74
2024/03/08 09:52:10;;;;;;;;;;;19.50;47.30;;;;;;1512956;78;1750;-78
2024/03/08 09:54:12;;;;;;;;;;;19.50;47.40;;;;;;1519990;78;761;-76
2024/03/08 09:56:14;;;;;;;;;;;19.50;47.40;;;;;;1520297;78;741;-75
2024/03/08 09:58:27;;;;;;;;;;;19.50;47.60;;;;;;1520801;78;739;-77
2024/03/08 10:00:24;;;;;;;;;;;19.50;47.60;;;;;;1514772;78;1129;-76
2024/03/08 10:02:23;;;;;;;;;;;19.50;47.60;;;;;;1516753;78;1711;-74
2024/03/08 10:04:28;;;;;;;;;;;19.50;47.60;;;;;;1512044;78;800;-75
2024/03/08 10:06:29;;;;;;;;;;;19.50;47.80;;;;;;1523837;78;1934;-75
2024/03/08 10:08:31;;;;;;;;;;;19.60;47.80;;;;;;1511726;78;798;-78
2024/03/08 10:10:34;;;;;;;;;;;19.60;47.80;;;;;;1520578;78;740;-74
2024/03/08 10:12:36;;;;;;;;;;;19.60;47.90;;;;;;1511581;78;1160;-74
2024/03/08 10:14:39;;;;;;;;;;;19.60;48.00;;;;;;1508870;78;732;-75
2024/03/08 10:16:41;;;;;;;;;;;19.60;47.90;;;;;;1519034;78;796;-74
2024/03/08 10:18:43;;;;;;;;;;;19.60;48.00;;;;;;1508164;78;715;-74
2024/03/08 10:20:45;;;;;;;;;;;19.60;48.10;;;;;;1506238;78;749;-72
2024/03/08 10:22:47;;;;;;;;;;;19.60;48.30;;;;;;1515921;78;1104;-72
2024/03/08 10:24:48;;;;;;;;;;;19.60;48.40;;;;;;1504598;78;778;-76
2024/03/08 10:26:54;;;;;;;;;;;19.60;48.60;;;;;;1506170;78;1953;-74
2024/03/08 10:28:57;;;;;;;;;;;19.70;48.60;;;;;;1510843;78;708;-71
2024/03/08 10:30:59;;;;;;;;;;;19.70;48.80;;;;;;1506623;78;696;-76
2024/03/08 10:33:02;;;;;;;;;;;19.70;48.70;;;;;;1510902;78;1127;-76
2024/03/08 10:35:04;;;;;;;;;;;19.70;48.60;;;;;;1510459;78;779;-76
2024/03/08 10:37:06;;;;;;;;;;;19.70;48.60;;;;;;1518125;78;716;-76
2024/03/08 10:39:09;;;;;;;;;;;19.70;48.60;;;;;;1519035;78;753;-74
2024/03/08 10:41:19;;;;;;;;;;;19.70;48.60;;;;;;1518778;78;1032;-73
2024/03/08 10:43:19;;;;;;;;;;;19.70;48.60;;;;;;1515358;78;1486;-76
2024/03/08 10:45:43;;;;;;;;;;;19.80;48.60;;;;;;1518848;78;1055;-75
2024/03/08 10:47:44;;;;;;;;;;;19.80;48.60;;;;;;1522990;78;1966;-76
2024/03/08 10:49:48;;;;;;;;;;;19.70;48.70;;;;;;1522542;78;708;-77
2024/03/08 10:51:51;;;;;;;;;;;19.80;48.70;;;;;;1512990;78;1809;-77
2024/03/08 10:53:54;;;;;;;;;;;19.80;48.70;;;;;;1514898;78;737;-74
2024/03/08 10:55:57;;;;;;;;;;;19.70;48.70;;;;;;1510960;78;788;-72
2024/03/08 10:58:00;;;;;;;;;;;19.70;48.80;;;;;;1508703;78;1125;-75
2024/03/08 11:00:03;;;;;;;;;;;19.80;48.80;;;;;;1513274;78;718;-73
2024/03/08 11:02:05;;;;;;;;;;;19.80;48.80;;;;;;1504850;78;1170;-74
2024/03/08 11:04:07;;;;;;;;;;;19.80;48.80;;;;;;1506002;78;745;-74
2024/03/08 11:06:12;;;;;;;;;;;19.80;48.90;;;;;;1511457;78;1945;-74
2024/03/08 11:08:20;;;;;;;;;;;19.80;48.90;;;;;;1511413;78;726;-73
2024/03/08 11:10:23;;;;;;;;;;;19.80;48.90;;;;;;1504514;78;708;-74
2024/03/08 11:12:25;;;;;;;;;;;19.80;48.90;;;;;;1488628;78;1412;-75
2024/03/08 11:14:43;;;;;;;;;;;19.80;48.90;;;;;;1509155;78;631;-76
2024/03/08 11:16:45;;;;;;;;;;;19.80;48.90;;;;;;1512529;78;725;-74
2024/03/08 11:18:48;;;;;;;;;;;19.80;48.90;;;;;;1510379;78;743;-74
2024/03/08 11:20:50;;;;;;;;;;;19.90;49.10;;;;;;1513500;78;680;-75
2024/03/08 11:22:55;;;;;;;;;;;19.80;49.00;;;;;;1508327;78;1160;-73
2024/03/08 11:25:01;;;;;;;;;;;19.80;49.00;;;;;;1509693;78;611;-74
2024/03/08 11:27:04;;;;;;;;;;;19.80;49.00;;;;;;1503908;78;1914;-74
2024/03/08 11:29:24;;;;;;;;;;;19.80;49.10;;;;;;1513704;78;759;-76
2024/03/08 11:31:26;;;;;;;;;;;19.80;49.10;;;;;;1513187;77;1142;-72
2024/03/08 11:33:28;;;;;;;;;;;19.80;49.10;;;;;;1512908;78;793;-73
2024/03/08 11:35:30;;;;;;;;;;;19.80;49.10;;;;;;1511233;78;786;-74
2024/03/08 11:37:34;;;;;;;;;;;19.90;49.20;;;;;;1503713;78;705;-73
2024/03/08 11:39:37;;;;;;;;;;;19.90;49.20;;;;;;1515398;78;1523;-74
2024/03/08 11:41:41;;;;;;;;;;;19.80;49.10;;;;;;1518814;78;1152;-75
2024/03/08 11:43:42;;;;;;;;;;;19.90;49.20;;;;;;1515654;78;1134;-74
2024/03/08 11:45:44;;;;;;;;;;;19.90;49.20;;;;;;1514340;78;904;-75
2024/03/08 11:47:49;;;;;;;;;;;19.90;49.20;;;;;;1511618;78;1934;-75
2024/03/08 11:49:52;;;;;;;;;;;19.90;49.20;;;;;;1514318;78;958;-73
2024/03/08 11:51:54;;;;;;;;;;;19.90;49.20;;;;;;1505777;78;1223;-75
2024/03/08 11:53:56;;;;;;;;;;;19.90;49.20;;;;;;1510368;77;622;-74
2024/03/08 11:56:11;;;;;;;;;;;19.90;49.30;;;;;;1511565;78;708;-73
2024/03/08 11:58:13;;;;;;;;;;;19.90;49.30;;;;;;1512321;78;750;-74
2024/03/08 12:00:22;;;;;;;;;;;19.90;49.30;;;;;;1511190;78;739;-74
2024/03/08 12:02:19;;;;;;;;;;;19.90;49.30;;;;;;1508229;78;1850;-74
2024/03/08 12:04:24;;;;;;;;;;;19.90;49.30;;;;;;1508385;78;766;-77
2024/03/08 12:06:25;;;;;;;;;;;19.80;49.20;;;;;;1512322;78;1933;-74
2024/03/08 12:08:32;;;;;;;;;;;19.90;49.20;;;;;;1513609;78;704;-73
2024/03/08 12:10:35;;;;;;;;;;;19.80;49.20;;;;;;1513775;78;708;-74